createdAt,value
2023-04-13T00:00:50.278Z,237.12
2023-04-13T00:01:50.344Z,237.10
2023-04-13T00:02:50.468Z,237.28
2023-04-13T00:03:50.436Z,236.90
2023-04-13T00:04:50.361Z,237.34
2023-04-13T00:05:50.557Z,237.14
2023-04-13T00:06:50.426Z,237.21
2023-04-13T00:07:50.434Z,236.55
2023-04-13T00:08:51.234Z,236.87
2023-04-13T00:09:50.528Z,237.30
2023-04-13T00:10:50.503Z,236.22
2023-04-13T00:11:50.523Z,236.19
2023-04-13T00:12:50.611Z,235.43
2023-04-13T00:13:50.606Z,236.33
2023-04-13T00:14:50.614Z,235.86
2023-04-13T00:15:50.613Z,235.78
2023-04-13T00:16:50.751Z,235.51
2023-04-13T00:17:50.681Z,234.98
2023-04-13T00:18:50.687Z,235.44
2023-04-13T00:19:50.718Z,235.15
2023-04-13T00:20:50.761Z,237.11
2023-04-13T00:21:50.799Z,235.55
2023-04-13T00:22:50.827Z,234.90
2023-04-13T00:23:50.834Z,234.88
2023-04-13T00:24:50.887Z,236.07
2023-04-13T00:25:50.902Z,235.85
2023-04-13T00:26:50.954Z,234.62
2023-04-13T00:27:50.948Z,235.18
2023-04-13T00:28:50.987Z,235.21
2023-04-13T00:29:51.047Z,235.33
2023-04-13T00:30:51.104Z,234.75
2023-04-13T00:31:51.089Z,233.83
2023-04-13T00:32:51.112Z,235.49
2023-04-13T00:33:51.147Z,235.57
2023-04-13T00:34:51.169Z,235.13
2023-04-13T00:35:51.915Z,234.75
2023-04-13T00:36:51.230Z,234.47
2023-04-13T00:37:51.243Z,234.55
2023-04-13T00:38:51.285Z,234.78
2023-04-13T00:39:51.321Z,234.59
2023-04-13T00:40:51.371Z,234.38
2023-04-13T00:41:51.399Z,235.34
2023-04-13T00:42:51.390Z,235.36
2023-04-13T00:43:51.516Z,236.25
2023-04-13T00:44:51.451Z,232.85
2023-04-13T00:45:51.519Z,233.77
2023-04-13T00:46:51.628Z,234.39
2023-04-13T00:47:51.536Z,234.49
2023-04-13T00:48:51.602Z,234.26
2023-04-13T00:49:51.624Z,233.86
2023-04-13T00:50:51.651Z,235.05
2023-04-13T00:51:51.677Z,233.50
2023-04-13T00:52:51.674Z,232.82
2023-04-13T00:53:51.713Z,235.33
2023-04-13T00:54:51.798Z,234.59
2023-04-13T00:55:51.843Z,233.21
2023-04-13T00:56:51.915Z,232.86
2023-04-13T00:57:51.840Z,232.35
2023-04-13T00:58:51.932Z,234.26
2023-04-13T00:59:51.860Z,235.11
2023-04-13T01:00:51.898Z,233.78
2023-04-13T01:01:51.978Z,233.25
2023-04-13T01:02:52.119Z,234.30
2023-04-13T01:03:52.019Z,233.35
2023-04-13T01:04:52.199Z,233.05
2023-04-13T01:05:52.057Z,232.98
2023-04-13T01:06:52.183Z,233.27
2023-04-13T01:07:52.145Z,233.88
2023-04-13T01:08:54.016Z,234.19
2023-04-13T01:09:52.240Z,232.42
2023-04-13T01:10:52.291Z,233.74
2023-04-13T01:11:52.357Z,231.61
2023-04-13T01:12:52.412Z,232.35
2023-04-13T01:13:52.523Z,231.20
2023-04-13T01:14:52.497Z,232.18
2023-04-13T01:15:52.588Z,231.33
2023-04-13T01:16:52.614Z,230.75
2023-04-13T01:17:53.512Z,229.09
2023-04-13T01:18:52.747Z,228.14
2023-04-13T01:19:52.800Z,230.31
2023-04-13T01:20:52.816Z,229.45
2023-04-13T01:21:52.854Z,230.32
2023-04-13T01:22:52.898Z,228.71
2023-04-13T01:23:52.966Z,229.96
2023-04-13T01:24:52.995Z,228.13
2023-04-13T01:25:53.114Z,226.98
2023-04-13T01:26:53.193Z,228.58
2023-04-13T01:27:53.173Z,227.55
2023-04-13T01:28:53.271Z,226.26
2023-04-13T01:29:53.250Z,225.83
2023-04-13T01:30:53.310Z,223.79
2023-04-13T01:31:53.421Z,224.70
2023-04-13T01:32:53.495Z,225.23
2023-04-13T01:33:53.481Z,224.11
2023-04-13T01:34:53.546Z,223.44
2023-04-13T01:35:53.595Z,223.23
2023-04-13T01:36:54.549Z,224.52
2023-04-13T01:37:53.684Z,222.16
2023-04-13T01:38:53.777Z,222.54
2023-04-13T01:39:53.766Z,221.29
2023-04-13T01:40:53.877Z,219.27
2023-04-13T01:41:53.875Z,219.43
2023-04-13T01:42:53.983Z,219.72
2023-04-13T01:43:54.085Z,217.98
2023-04-13T01:44:54.047Z,218.96
2023-04-13T01:45:54.128Z,216.86
2023-04-13T01:46:54.369Z,219.38
2023-04-13T01:47:54.274Z,217.70
2023-04-13T01:48:54.338Z,218.47
2023-04-13T01:49:54.351Z,217.95
2023-04-13T01:50:54.470Z,217.14
2023-04-13T01:51:54.477Z,218.32
2023-04-13T01:52:54.508Z,216.82
2023-04-13T01:53:54.588Z,215.40
2023-04-13T01:54:54.630Z,216.51
2023-04-13T01:55:54.741Z,215.24
2023-04-13T01:56:54.741Z,214.35
2023-04-13T01:57:54.821Z,213.88
2023-04-13T01:58:54.933Z,214.10
2023-04-13T01:59:54.925Z,213.93
2023-04-13T02:00:55.054Z,213.68
2023-04-13T02:01:55.080Z,212.29
2023-04-13T02:02:56.060Z,211.51
2023-04-13T02:03:55.301Z,213.67
2023-04-13T02:04:55.225Z,213.31
2023-04-13T02:05:55.265Z,211.93
2023-04-13T02:06:55.312Z,213.34
2023-04-13T02:07:55.405Z,213.27
2023-04-13T02:08:55.521Z,212.81
2023-04-13T02:09:55.499Z,212.06
2023-04-13T02:10:55.564Z,211.75
2023-04-13T02:11:55.628Z,211.06
2023-04-13T02:12:55.773Z,210.75
2023-04-13T02:13:55.767Z,210.57
2023-04-13T02:14:55.818Z,210.21
2023-04-13T02:15:55.912Z,209.28
2023-04-13T02:16:55.988Z,211.27
2023-04-13T02:17:56.015Z,208.62
2023-04-13T02:18:56.084Z,210.08
2023-04-13T02:19:56.460Z,210.40
2023-04-13T02:20:56.158Z,208.33
2023-04-13T02:21:56.250Z,208.80
2023-04-13T02:22:56.268Z,206.97
2023-04-13T02:23:56.510Z,208.85
2023-04-13T02:24:56.411Z,208.61
2023-04-13T02:25:56.490Z,207.57
2023-04-13T02:26:56.529Z,207.36
2023-04-13T02:27:56.643Z,208.47
2023-04-13T02:28:56.650Z,205.35
2023-04-13T02:29:56.720Z,206.32
2023-04-13T02:30:56.768Z,205.25
2023-04-13T02:31:56.866Z,205.29
2023-04-13T02:32:56.929Z,202.34
2023-04-13T02:33:57.090Z,202.35
2023-04-13T02:34:57.044Z,203.25
2023-04-13T02:35:57.095Z,203.38
2023-04-13T02:36:57.146Z,203.04
2023-04-13T02:37:57.299Z,204.52
2023-04-13T02:38:57.283Z,200.77
2023-04-13T02:39:57.339Z,201.68
2023-04-13T02:40:57.449Z,202.80
2023-04-13T02:41:57.469Z,201.63
2023-04-13T02:42:57.564Z,201.48
2023-04-13T02:43:57.934Z,202.35
2023-04-13T02:44:57.665Z,202.17
2023-04-13T02:45:57.762Z,200.03
2023-04-13T02:46:57.798Z,200.40
2023-04-13T02:47:57.938Z,199.30
2023-04-13T02:48:57.947Z,198.17
2023-04-13T02:49:58.011Z,197.62
2023-04-13T02:50:58.079Z,199.39
2023-04-13T02:51:58.233Z,199.25
2023-04-13T02:52:58.208Z,199.35
2023-04-13T02:53:58.321Z,199.48
2023-04-13T02:54:58.369Z,198.27
2023-04-13T02:55:58.427Z,198.14
2023-04-13T02:56:58.436Z,198.20
2023-04-13T02:57:58.466Z,198.15
2023-04-13T02:58:58.491Z,194.78
2023-04-13T02:59:58.579Z,195.35
2023-04-13T03:00:58.594Z,196.23
2023-04-13T03:01:58.754Z,195.38
2023-04-13T03:02:58.665Z,196.68
2023-04-13T03:03:58.773Z,195.95
2023-04-13T03:04:58.781Z,197.41
2023-04-13T03:05:58.740Z,195.90
2023-04-13T03:06:58.790Z,196.10
2023-04-13T03:07:58.812Z,194.50
2023-04-13T03:08:58.774Z,194.60
2023-04-13T03:09:58.806Z,193.49
2023-04-13T03:10:58.833Z,193.01
2023-04-13T03:11:58.914Z,192.97
2023-04-13T03:12:58.974Z,190.80
2023-04-13T03:13:59.574Z,191.91
2023-04-13T03:15:01.773Z,192.00
2023-04-13T03:15:59.071Z,192.13
2023-04-13T03:16:59.137Z,192.07
2023-04-13T03:17:59.277Z,191.41
2023-04-13T03:18:59.184Z,190.31
2023-04-13T03:19:59.218Z,189.36
2023-04-13T03:20:59.222Z,189.94
2023-04-13T03:21:59.245Z,189.93
2023-04-13T03:22:59.330Z,189.16
2023-04-13T03:23:59.672Z,188.70
2023-04-13T03:24:59.397Z,187.07
2023-04-13T03:25:59.365Z,188.26
2023-04-13T03:26:59.359Z,187.96
2023-04-13T03:27:59.399Z,187.24
2023-04-13T03:28:59.420Z,184.68
2023-04-13T03:29:59.476Z,186.22
2023-04-13T03:30:59.545Z,186.33
2023-04-13T03:31:59.513Z,186.79
2023-04-13T03:32:59.636Z,186.27
2023-04-13T03:33:59.698Z,186.44
2023-04-13T03:34:59.618Z,183.60
2023-04-13T03:35:59.604Z,182.87
2023-04-13T03:36:59.628Z,183.00
2023-04-13T03:37:59.650Z,182.99
2023-04-13T03:38:59.660Z,184.21
2023-04-13T03:39:59.695Z,183.12
2023-04-13T03:40:59.725Z,183.02
2023-04-13T03:41:59.748Z,182.56
2023-04-13T03:42:59.760Z,181.98
2023-04-13T03:44:00.054Z,180.11
2023-04-13T03:44:59.803Z,180.41
2023-04-13T03:45:59.856Z,181.23
2023-04-13T03:46:59.848Z,181.50
2023-04-13T03:47:59.988Z,180.84
2023-04-13T03:48:59.953Z,180.51
2023-04-13T03:49:59.962Z,180.09
2023-04-13T03:50:59.957Z,180.64
2023-04-13T03:51:59.988Z,178.77
2023-04-13T03:53:00.046Z,174.70
2023-04-13T03:54:00.497Z,173.67
2023-04-13T03:55:00.073Z,174.92
2023-04-13T03:56:00.141Z,176.21
2023-04-13T03:57:00.183Z,176.30
2023-04-13T03:58:00.141Z,176.46
2023-04-13T03:59:00.150Z,176.44
2023-04-13T04:00:00.205Z,176.86
2023-04-13T04:01:00.209Z,177.97
2023-04-13T04:02:00.254Z,177.53
2023-04-13T04:03:00.343Z,175.72
2023-04-13T04:04:00.692Z,175.15
2023-04-13T04:05:00.436Z,175.05
2023-04-13T04:06:00.321Z,175.16
2023-04-13T04:07:00.355Z,173.50
2023-04-13T04:08:00.369Z,173.51
2023-04-13T04:09:00.396Z,173.66
2023-04-13T04:10:00.428Z,173.79
2023-04-13T04:11:00.494Z,173.57
2023-04-13T04:12:00.466Z,173.66
2023-04-13T04:13:00.494Z,173.88
2023-04-13T04:14:00.784Z,172.31
2023-04-13T04:15:00.547Z,171.49
2023-04-13T04:16:00.622Z,173.17
2023-04-13T04:17:00.602Z,172.89
2023-04-13T04:18:00.699Z,171.63
2023-04-13T04:19:00.717Z,170.39
2023-04-13T04:20:00.677Z,169.79
2023-04-13T04:21:02.562Z,172.15
2023-04-13T04:22:00.747Z,171.35
2023-04-13T04:23:00.757Z,169.07
2023-04-13T04:24:00.861Z,170.00
2023-04-13T04:25:00.786Z,170.23
2023-04-13T04:26:00.983Z,169.33
2023-04-13T04:27:00.897Z,168.19
2023-04-13T04:28:00.960Z,170.21
2023-04-13T04:29:01.008Z,167.98
2023-04-13T04:30:01.065Z,169.34
2023-04-13T04:31:01.103Z,169.43
2023-04-13T04:32:01.196Z,169.38
2023-04-13T04:33:01.165Z,169.40
2023-04-13T04:34:01.262Z,169.61
2023-04-13T04:35:01.179Z,169.44
2023-04-13T04:36:01.230Z,169.38
2023-04-13T04:37:03.578Z,168.40
2023-04-13T04:38:01.334Z,169.41
2023-04-13T04:39:01.298Z,169.46
2023-04-13T04:40:01.361Z,168.55
2023-04-13T04:41:01.344Z,169.64
2023-04-13T04:42:01.362Z,168.05
2023-04-13T04:43:01.396Z,169.56
2023-04-13T04:44:01.435Z,168.00
2023-04-13T04:45:01.483Z,167.62
2023-04-13T04:46:01.564Z,168.98
2023-04-13T04:47:01.509Z,169.12
2023-04-13T04:48:02.529Z,168.36
2023-04-13T04:49:01.560Z,167.66
2023-04-13T04:50:01.596Z,166.66
2023-04-13T04:51:02.616Z,165.15
2023-04-13T04:52:02.528Z,166.07
2023-04-13T04:53:02.505Z,164.70
2023-04-13T04:54:01.807Z,165.64
2023-04-13T04:55:01.754Z,165.29
2023-04-13T04:56:02.016Z,164.89
2023-04-13T04:57:01.878Z,165.01
2023-04-13T04:58:01.865Z,165.06
2023-04-13T04:59:01.999Z,165.40
2023-04-13T05:00:01.913Z,165.56
2023-04-13T05:01:02.429Z,164.99
2023-04-13T05:02:01.924Z,165.66
2023-04-13T05:03:02.065Z,165.83
2023-04-13T05:04:02.530Z,165.49
2023-04-13T05:05:02.049Z,163.18
2023-04-13T05:06:02.058Z,163.58
2023-04-13T05:07:02.217Z,165.65
2023-04-13T05:08:02.069Z,165.77
2023-04-13T05:09:02.141Z,166.64
2023-04-13T05:10:02.299Z,163.35
2023-04-13T05:11:02.205Z,162.71
2023-04-13T05:12:02.233Z,162.44
2023-04-13T05:13:02.280Z,161.87
2023-04-13T05:14:02.381Z,161.97
2023-04-13T05:15:02.405Z,162.23
2023-04-13T05:16:02.425Z,162.80
2023-04-13T05:17:02.380Z,163.64
2023-04-13T05:18:02.446Z,163.53
2023-04-13T05:19:02.659Z,165.05
2023-04-13T05:20:02.490Z,161.62
2023-04-13T05:21:02.501Z,161.74
2023-04-13T05:22:02.537Z,161.85
2023-04-13T05:23:02.592Z,162.02
2023-04-13T05:24:02.596Z,161.95
2023-04-13T05:25:02.641Z,162.04
2023-04-13T05:26:03.568Z,162.60
2023-04-13T05:27:02.759Z,162.32
2023-04-13T05:28:03.523Z,164.54
2023-04-13T05:29:03.559Z,162.20
2023-04-13T05:30:03.626Z,163.23
2023-04-13T05:31:03.665Z,162.26
2023-04-13T05:32:03.036Z,157.32
2023-04-13T05:33:03.082Z,159.72
2023-04-13T05:34:03.153Z,162.55
2023-04-13T05:35:03.125Z,162.41
2023-04-13T05:36:03.897Z,159.77
2023-04-13T05:37:03.099Z,161.76
2023-04-13T05:38:03.431Z,162.58
2023-04-13T05:39:03.205Z,161.56
2023-04-13T05:40:03.206Z,163.63
2023-04-13T05:41:03.231Z,163.67
2023-04-13T05:42:03.220Z,161.95
2023-04-13T05:43:03.229Z,161.61
2023-04-13T05:44:03.284Z,163.04
2023-04-13T05:45:03.291Z,157.80
2023-04-13T05:46:03.389Z,156.64
2023-04-13T05:47:03.551Z,157.27
2023-04-13T05:48:03.913Z,156.75
2023-04-13T05:49:03.512Z,159.23
2023-04-13T05:50:03.436Z,158.00
2023-04-13T05:51:03.534Z,157.77
2023-04-13T05:52:03.546Z,156.30
2023-04-13T05:53:03.566Z,155.79
2023-04-13T05:54:03.655Z,155.44
2023-04-13T05:55:03.669Z,153.49
2023-04-13T05:56:03.683Z,153.65
2023-04-13T05:57:03.752Z,152.16
2023-04-13T05:58:03.844Z,152.67
2023-04-13T05:59:03.883Z,152.96
2023-04-13T06:00:03.954Z,152.27
2023-04-13T06:01:04.024Z,151.49
2023-04-13T06:02:04.100Z,149.88
2023-04-13T06:03:04.326Z,150.32
2023-04-13T06:04:04.371Z,146.94
2023-04-13T06:05:04.237Z,147.35
2023-04-13T06:06:04.307Z,147.79
2023-04-13T06:07:04.335Z,146.94
2023-04-13T06:08:04.378Z,146.48
2023-04-13T06:09:04.487Z,145.89
2023-04-13T06:10:05.037Z,145.03
2023-04-13T06:11:04.656Z,144.89
2023-04-13T06:12:04.977Z,145.28
2023-04-13T06:13:04.811Z,143.38
2023-04-13T06:14:04.870Z,143.64
2023-04-13T06:15:04.838Z,142.16
2023-04-13T06:16:05.145Z,142.22
2023-04-13T06:17:05.335Z,140.03
2023-04-13T06:18:05.009Z,139.90
2023-04-13T06:19:05.254Z,140.16
2023-04-13T06:20:05.064Z,140.35
2023-04-13T06:21:05.163Z,141.12
2023-04-13T06:22:05.080Z,140.84
2023-04-13T06:23:05.020Z,139.53
2023-04-13T06:24:05.077Z,140.72
2023-04-13T06:25:05.059Z,140.73
2023-04-13T06:26:05.866Z,140.76
2023-04-13T06:27:05.118Z,140.49
2023-04-13T06:28:05.127Z,138.61
2023-04-13T06:29:05.200Z,140.29
2023-04-13T06:30:05.193Z,139.58
2023-04-13T06:31:05.371Z,138.45
2023-04-13T06:32:05.244Z,139.71
2023-04-13T06:33:05.385Z,138.92
2023-04-13T06:34:05.421Z,137.77
2023-04-13T06:35:05.322Z,135.87
2023-04-13T06:36:05.339Z,136.80
2023-04-13T06:37:10.739Z,137.09
2023-04-13T06:38:05.467Z,137.24
2023-04-13T06:39:05.441Z,137.17
2023-04-13T06:40:06.305Z,133.67
2023-04-13T06:41:05.653Z,135.67
2023-04-13T06:42:05.580Z,133.61
2023-04-13T06:43:08.868Z,134.35
2023-04-13T06:44:06.760Z,134.38
2023-04-13T06:45:05.721Z,134.91
2023-04-13T06:46:05.783Z,134.79
2023-04-13T06:47:05.848Z,128.12
2023-04-13T06:48:06.300Z,130.32
2023-04-13T06:49:06.868Z,133.89
2023-04-13T06:50:05.836Z,134.07
2023-04-13T06:51:06.715Z,130.56
2023-04-13T06:52:05.855Z,132.75
2023-04-13T06:53:05.910Z,133.06
2023-04-13T06:54:05.910Z,130.29
2023-04-13T06:55:05.960Z,127.73
2023-04-13T06:56:05.967Z,126.52
2023-04-13T06:57:06.024Z,114.23
2023-04-13T06:58:06.059Z,111.31
2023-04-13T06:59:06.817Z,111.88
2023-04-13T07:00:12.650Z,117.99
2023-04-13T07:01:07.610Z,113.69
2023-04-13T07:02:06.790Z,115.07
2023-04-13T07:03:06.595Z,105.84
2023-04-13T07:04:08.684Z,101.09
2023-04-13T07:05:07.903Z,102.95
2023-04-13T07:06:06.549Z,108.06
2023-04-13T07:07:10.803Z,113.11
2023-04-13T07:08:06.706Z,117.36
2023-04-13T07:09:08.641Z,118.67
2023-04-13T07:10:06.662Z,118.07
2023-04-13T07:11:06.592Z,119.48
2023-04-13T07:12:12.740Z,123.66
2023-04-13T07:13:06.625Z,118.56
2023-04-13T07:14:06.664Z,120.07
2023-04-13T07:15:06.659Z,123.62
2023-04-13T07:16:06.824Z,127.05
2023-04-13T07:17:06.727Z,131.57
2023-04-13T07:18:06.776Z,130.34
2023-04-13T07:19:07.016Z,137.51
2023-04-13T07:20:06.932Z,135.59
2023-04-13T07:21:08.426Z,140.97
2023-04-13T07:22:07.047Z,142.99
2023-04-13T07:23:06.919Z,144.56
2023-04-13T07:24:06.826Z,143.01
2023-04-13T07:25:06.977Z,149.45
2023-04-13T07:26:07.013Z,149.25
2023-04-13T07:27:08.225Z,147.55
2023-04-13T07:28:07.241Z,147.66
2023-04-13T07:29:07.041Z,147.86
2023-04-13T07:30:07.117Z,147.41
2023-04-13T07:31:07.159Z,150.95
2023-04-13T07:32:07.144Z,150.93
2023-04-13T07:33:07.225Z,147.04
2023-04-13T07:34:07.565Z,145.45
2023-04-13T07:35:07.357Z,145.34
2023-04-13T07:36:07.097Z,145.44
2023-04-13T07:37:07.156Z,146.06
2023-04-13T07:38:07.177Z,145.80
2023-04-13T07:39:07.182Z,147.08
2023-04-13T07:40:07.354Z,147.73
2023-04-13T07:41:07.278Z,149.93
2023-04-13T07:42:07.256Z,145.89
2023-04-13T07:43:07.506Z,148.00
2023-04-13T07:44:07.271Z,151.94
2023-04-13T07:45:09.397Z,159.08
2023-04-13T07:46:08.104Z,169.38
2023-04-13T07:47:07.523Z,171.70
2023-04-13T07:48:07.408Z,171.92
2023-04-13T07:49:07.485Z,172.03
2023-04-13T07:50:07.368Z,172.15
2023-04-13T07:51:07.392Z,171.76
2023-04-13T07:52:07.507Z,171.28
2023-04-13T07:53:07.447Z,171.80
2023-04-13T07:54:07.419Z,171.73
2023-04-13T07:55:07.493Z,172.92
2023-04-13T07:56:07.509Z,171.42
2023-04-13T07:57:07.545Z,171.79
2023-04-13T07:58:07.553Z,172.60
2023-04-13T07:59:07.525Z,174.84
2023-04-13T08:00:07.596Z,177.83
2023-04-13T08:01:07.606Z,182.11
2023-04-13T08:02:07.737Z,183.65
2023-04-13T08:03:07.825Z,184.35
2023-04-13T08:04:07.815Z,184.47
2023-04-13T08:05:07.950Z,177.51
2023-04-13T08:06:07.811Z,178.01
2023-04-13T08:07:07.653Z,179.95
2023-04-13T08:08:07.781Z,177.41
2023-04-13T08:09:07.756Z,176.93
2023-04-13T08:10:07.691Z,176.85
2023-04-13T08:11:07.729Z,177.37
2023-04-13T08:12:08.644Z,177.41
2023-04-13T08:13:07.849Z,178.13
2023-04-13T08:14:08.070Z,173.03
2023-04-13T08:15:08.093Z,175.81
2023-04-13T08:16:08.181Z,177.46
2023-04-13T08:17:08.104Z,173.17
2023-04-13T08:18:08.165Z,172.58
2023-04-13T08:19:08.194Z,171.29
2023-04-13T08:20:08.412Z,176.09
2023-04-13T08:21:08.321Z,180.53
2023-04-13T08:22:08.477Z,184.23
2023-04-13T08:23:10.114Z,186.37
2023-04-13T08:24:08.612Z,189.45
2023-04-13T08:25:08.556Z,192.53
2023-04-13T08:26:08.553Z,191.59
2023-04-13T08:27:08.652Z,190.37
2023-04-13T08:28:08.581Z,190.55
2023-04-13T08:29:08.650Z,192.75
2023-04-13T08:30:08.615Z,191.60
2023-04-13T08:31:08.688Z,188.56
2023-04-13T08:32:08.699Z,188.83
2023-04-13T08:33:08.647Z,191.05
2023-04-13T08:34:08.612Z,191.36
2023-04-13T08:35:08.691Z,189.81
2023-04-13T08:36:08.660Z,188.16
2023-04-13T08:37:08.685Z,190.77
2023-04-13T08:38:08.653Z,190.86
2023-04-13T08:39:08.665Z,190.81
2023-04-13T08:40:08.658Z,190.89
2023-04-13T08:41:08.756Z,190.71
2023-04-13T08:42:08.708Z,190.51
2023-04-13T08:43:08.873Z,190.61
2023-04-13T08:44:08.750Z,192.77
2023-04-13T08:45:08.734Z,190.85
2023-04-13T08:46:08.791Z,186.53
2023-04-13T08:47:08.839Z,191.28
2023-04-13T08:48:08.828Z,191.30
2023-04-13T08:49:08.976Z,190.15
2023-04-13T08:50:09.123Z,188.72
2023-04-13T08:51:09.059Z,190.37
2023-04-13T08:52:09.069Z,192.45
2023-04-13T08:53:10.210Z,190.37
2023-04-13T08:54:09.187Z,190.08
2023-04-13T08:55:10.274Z,193.70
2023-04-13T08:56:09.419Z,193.04
2023-04-13T08:57:09.585Z,190.00
2023-04-13T08:58:09.564Z,187.69
2023-04-13T08:59:09.649Z,184.82
2023-04-13T09:00:09.706Z,184.14
2023-04-13T09:01:10.088Z,183.78
2023-04-13T09:02:10.863Z,184.89
2023-04-13T09:03:12.678Z,183.82
2023-04-13T09:04:10.209Z,183.91
2023-04-13T09:05:10.154Z,184.06
2023-04-13T09:06:10.025Z,184.48
2023-04-13T09:07:10.521Z,184.97
2023-04-13T09:08:10.166Z,185.47
2023-04-13T09:09:10.101Z,182.86
2023-04-13T09:10:10.277Z,181.95
2023-04-13T09:11:15.118Z,183.75
2023-04-13T09:12:10.346Z,183.92
2023-04-13T09:13:10.191Z,184.60
2023-04-13T09:14:10.179Z,184.14
2023-04-13T09:15:10.217Z,185.92
2023-04-13T09:16:10.216Z,182.68
2023-04-13T09:17:10.507Z,186.15
2023-04-13T09:18:10.435Z,184.59
2023-04-13T09:19:11.443Z,180.98
2023-04-13T09:20:10.325Z,184.76
2023-04-13T09:21:10.357Z,181.43
2023-04-13T09:22:10.326Z,185.13
2023-04-13T09:23:10.698Z,182.52
2023-04-13T09:24:11.120Z,182.89
2023-04-13T09:25:12.117Z,184.33
2023-04-13T09:26:10.817Z,184.71
2023-04-13T09:27:10.452Z,185.01
2023-04-13T09:28:10.523Z,186.42
2023-04-13T09:29:10.609Z,183.20
2023-04-13T09:30:10.482Z,181.32
2023-04-13T09:31:10.661Z,186.50
2023-04-13T09:32:10.528Z,185.98
2023-04-13T09:33:10.763Z,185.56
2023-04-13T09:34:10.676Z,186.26
2023-04-13T09:35:11.134Z,187.16
2023-04-13T09:36:10.856Z,188.00
2023-04-13T09:37:10.822Z,183.53
2023-04-13T09:38:10.936Z,185.77
2023-04-13T09:39:11.008Z,186.14
2023-04-13T09:40:11.084Z,184.69
2023-04-13T09:41:11.255Z,183.73
2023-04-13T09:42:11.277Z,184.28
2023-04-13T09:43:11.292Z,184.16
2023-04-13T09:44:11.367Z,184.47
2023-04-13T09:45:11.467Z,185.73
2023-04-13T09:46:11.641Z,182.98
2023-04-13T09:47:11.668Z,183.35
2023-04-13T09:48:11.740Z,182.72
2023-04-13T09:49:12.003Z,185.89
2023-04-13T09:50:11.940Z,186.33
2023-04-13T09:51:12.029Z,186.36
2023-04-13T09:52:12.109Z,186.80
2023-04-13T09:53:12.263Z,185.38
2023-04-13T09:54:12.346Z,185.05
2023-04-13T09:55:12.292Z,183.33
2023-04-13T09:56:12.360Z,184.28
2023-04-13T09:57:12.370Z,185.11
2023-04-13T09:58:12.322Z,182.88
2023-04-13T09:59:12.404Z,181.63
2023-04-13T10:00:12.433Z,183.26
2023-04-13T10:01:12.489Z,181.73
2023-04-13T10:02:13.255Z,184.39
2023-04-13T10:03:12.626Z,183.39
2023-04-13T10:04:12.785Z,178.74
2023-04-13T10:05:12.686Z,184.33
2023-04-13T10:06:12.870Z,180.18
2023-04-13T10:07:12.818Z,182.57
2023-04-13T10:08:13.000Z,190.33
2023-04-13T10:09:13.076Z,191.03
2023-04-13T10:10:13.175Z,190.54
2023-04-13T10:11:13.131Z,192.51
2023-04-13T10:12:14.205Z,193.64
2023-04-13T10:13:21.617Z,195.37
2023-04-13T10:14:14.510Z,195.48
2023-04-13T10:15:13.501Z,196.05
2023-04-13T10:16:13.479Z,197.14
2023-04-13T10:17:13.362Z,199.75
2023-04-13T10:18:13.453Z,195.70
2023-04-13T10:19:14.784Z,196.94
2023-04-13T10:20:13.691Z,199.28
2023-04-13T10:21:13.491Z,201.97
2023-04-13T10:22:13.461Z,208.46
2023-04-13T10:23:13.528Z,208.92
2023-04-13T10:24:13.581Z,207.35
2023-04-13T10:25:18.661Z,207.92
2023-04-13T10:26:14.608Z,208.14
2023-04-13T10:27:13.602Z,208.62
2023-04-13T10:28:13.578Z,209.14
2023-04-13T10:29:14.066Z,211.34
2023-04-13T10:30:13.713Z,214.50
2023-04-13T10:31:14.323Z,213.09
2023-04-13T10:32:13.649Z,216.61
2023-04-13T10:33:13.668Z,216.69
2023-04-13T10:34:14.026Z,216.87
2023-04-13T10:35:13.690Z,217.04
2023-04-13T10:36:13.688Z,217.19
2023-04-13T10:37:13.716Z,218.81
2023-04-13T10:38:13.869Z,219.47
2023-04-13T10:39:16.813Z,220.05
2023-04-13T10:40:13.931Z,222.48
2023-04-13T10:41:13.834Z,221.81
2023-04-13T10:42:14.212Z,222.59
2023-04-13T10:43:13.832Z,224.30
2023-04-13T10:44:13.903Z,223.00
2023-04-13T10:45:14.228Z,223.57
2023-04-13T10:46:14.022Z,224.27
2023-04-13T10:47:15.697Z,223.35
2023-04-13T10:48:14.014Z,222.67
2023-04-13T10:49:15.708Z,224.06
2023-04-13T10:50:14.017Z,224.71
2023-04-13T10:51:14.049Z,225.10
2023-04-13T10:52:14.022Z,224.50
2023-04-13T10:53:14.040Z,225.45
2023-04-13T10:54:14.074Z,224.13
2023-04-13T10:55:14.159Z,225.70
2023-04-13T10:56:14.301Z,225.35
2023-04-13T10:57:14.109Z,225.94
2023-04-13T10:58:15.179Z,227.21
2023-04-13T10:59:14.304Z,227.87
2023-04-13T11:00:14.267Z,228.07
2023-04-13T11:01:14.261Z,229.10
2023-04-13T11:02:14.307Z,229.09
2023-04-13T11:03:14.414Z,229.04
2023-04-13T11:04:17.776Z,229.14
2023-04-13T11:05:14.428Z,229.24
2023-04-13T11:06:15.220Z,229.38
2023-04-13T11:07:14.494Z,229.80
2023-04-13T11:08:14.481Z,229.36
2023-04-13T11:09:16.770Z,231.27
2023-04-13T11:10:14.699Z,232.85
2023-04-13T11:11:15.137Z,232.98
2023-04-13T11:12:14.748Z,233.46
2023-04-13T11:13:14.674Z,233.56
2023-04-13T11:14:14.633Z,233.56
2023-04-13T11:15:15.671Z,233.27
2023-04-13T11:16:14.737Z,230.61
2023-04-13T11:17:14.695Z,228.26
2023-04-13T11:18:14.687Z,227.31
2023-04-13T11:19:14.683Z,226.07
2023-04-13T11:20:14.850Z,226.09
2023-04-13T11:21:14.810Z,222.51
2023-04-13T11:22:14.797Z,219.54
2023-04-13T11:23:14.838Z,216.27
2023-04-13T11:24:14.941Z,213.44
2023-04-13T11:25:14.896Z,212.51
2023-04-13T11:26:14.875Z,208.65
2023-04-13T11:27:14.824Z,207.70
2023-04-13T11:28:14.891Z,205.19
2023-04-13T11:29:14.864Z,202.98
2023-04-13T11:30:14.900Z,199.04
2023-04-13T11:31:14.929Z,197.58
2023-04-13T11:32:15.998Z,195.71
2023-04-13T11:33:15.088Z,195.62
2023-04-13T11:34:15.148Z,193.06
2023-04-13T11:35:15.273Z,193.64
2023-04-13T11:36:15.230Z,193.72
2023-04-13T11:37:15.243Z,193.85
2023-04-13T11:38:15.243Z,194.14
2023-04-13T11:39:15.251Z,192.94
2023-04-13T11:40:15.316Z,192.29
2023-04-13T11:41:16.888Z,192.41
2023-04-13T11:42:15.352Z,193.12
2023-04-13T11:43:15.569Z,191.31
2023-04-13T11:44:15.504Z,191.32
2023-04-13T11:45:15.464Z,191.72
2023-04-13T11:46:15.963Z,189.51
2023-04-13T11:47:15.601Z,187.56
2023-04-13T11:48:15.601Z,186.68
2023-04-13T11:49:15.660Z,187.22
2023-04-13T11:50:15.931Z,184.75
2023-04-13T11:51:15.809Z,185.77
2023-04-13T11:52:17.688Z,187.30
2023-04-13T11:53:15.822Z,186.64
2023-04-13T11:54:15.912Z,188.96
2023-04-13T11:55:23.209Z,188.86
2023-04-13T11:56:17.003Z,189.01
2023-04-13T11:57:16.051Z,189.78
2023-04-13T11:58:16.196Z,191.45
2023-04-13T11:59:16.070Z,195.24
2023-04-13T12:00:16.038Z,198.38
2023-04-13T12:01:23.367Z,201.50
2023-04-13T12:02:22.638Z,201.60
2023-04-13T12:03:34.685Z,201.77
2023-04-13T12:04:17.292Z,201.83
2023-04-13T12:05:16.387Z,202.74
2023-04-13T12:06:16.536Z,204.88
2023-04-13T12:07:16.604Z,207.47
2023-04-13T12:08:16.551Z,210.90
2023-04-13T12:09:17.867Z,211.15
2023-04-13T12:10:23.144Z,211.33
2023-04-13T12:11:40.465Z,211.45
2023-04-13T12:12:50.529Z,211.52
2023-04-13T12:13:22.857Z,211.68
2023-04-13T12:14:29.425Z,211.78
2023-04-13T12:16:18.340Z,211.99
2023-04-13T12:18:18.109Z,212.00
2023-04-13T12:19:19.240Z,211.93
2023-04-13T12:20:16.683Z,214.58
2023-04-13T12:21:16.827Z,218.56
2023-04-13T12:22:17.581Z,223.75
2023-04-13T12:23:22.279Z,212.00
2023-04-13T12:24:18.918Z,212.02
2023-04-13T12:25:17.773Z,214.84
2023-04-13T12:26:49.868Z,219.44
2023-04-13T12:27:19.145Z,212.02
2023-04-13T12:28:16.774Z,214.67
2023-04-13T12:29:16.728Z,212.16
2023-04-13T12:30:16.773Z,215.16
2023-04-13T12:31:16.813Z,219.97